createdAt,value
2018-06-10T00:00:01.894Z,94.64
2018-06-10T00:01:01.879Z,94.54
2018-06-10T00:02:01.857Z,94.45
2018-06-10T00:03:01.871Z,94.54
2018-06-10T00:04:01.850Z,94.54
2018-06-10T00:05:01.876Z,94.35
2018-06-10T00:06:01.846Z,94.35
2018-06-10T00:07:01.857Z,94.25
2018-06-10T00:08:01.605Z,94.35
2018-06-10T00:09:01.585Z,94.25
2018-06-10T00:10:01.861Z,94.35
2018-06-10T00:11:01.862Z,94.25
2018-06-10T00:12:01.849Z,94.35
2018-06-10T00:13:01.826Z,94.35
2018-06-10T00:14:01.574Z,94.45
2018-06-10T00:15:01.845Z,94.35
2018-06-10T00:16:01.837Z,94.35
2018-06-10T00:17:01.835Z,94.11
2018-06-10T00:18:01.815Z,94.3
2018-06-10T00:19:01.827Z,94.11
2018-06-10T00:20:01.839Z,94.3
2018-06-10T00:21:01.826Z,94.4
2018-06-10T00:22:01.818Z,94.4
2018-06-10T00:23:01.820Z,94.11
2018-06-10T00:24:01.797Z,94.01
2018-06-10T00:25:01.814Z,94.3
2018-06-10T00:26:01.792Z,94.49
2018-06-10T00:27:01.794Z,94.3
2018-06-10T00:28:01.834Z,94.11
2018-06-10T00:29:01.824Z,94.4
2018-06-10T00:30:01.817Z,93.73
2018-06-10T00:31:01.792Z,93.73
2018-06-10T00:32:01.777Z,94.01
2018-06-10T00:33:01.795Z,93.73
2018-06-10T00:34:01.773Z,94.3
2018-06-10T00:35:01.781Z,94.11
2018-06-10T00:36:01.766Z,93.82
2018-06-10T00:37:01.792Z,93.82
2018-06-10T00:38:01.509Z,94.01
2018-06-10T00:39:01.774Z,93.91
2018-06-10T00:40:01.753Z,94.21
2018-06-10T00:41:01.771Z,94.11
2018-06-10T00:42:01.747Z,94.01
2018-06-10T00:43:01.749Z,93.91
2018-06-10T00:44:01.742Z,94.01
2018-06-10T00:45:01.761Z,93.91
2018-06-10T00:46:01.759Z,94.01
2018-06-10T00:47:01.749Z,93.82
2018-06-10T00:48:01.731Z,93.63
2018-06-10T00:49:01.731Z,93.73
2018-06-10T00:50:01.746Z,93.87
2018-06-10T00:51:01.726Z,93.96
2018-06-10T00:52:01.740Z,93.91
2018-06-10T00:53:01.717Z,93.87
2018-06-10T00:54:01.733Z,94.16
2018-06-10T00:55:01.726Z,94.06
2018-06-10T00:56:01.768Z,94.06
2018-06-10T00:57:01.707Z,94.06
2018-06-10T00:58:01.722Z,94.06
2018-06-10T00:59:01.703Z,94.06
2018-06-10T01:00:01.700Z,94.26
2018-06-10T01:01:01.711Z,94.45
2018-06-10T01:02:01.714Z,94.54
2018-06-10T01:03:01.704Z,93.96
2018-06-10T01:04:01.440Z,93.96
2018-06-10T01:05:01.691Z,94.26
2018-06-10T01:06:01.698Z,94.26
2018-06-10T01:07:01.690Z,94.26
2018-06-10T01:08:01.692Z,94.35
2018-06-10T01:09:01.458Z,94.26
2018-06-10T01:10:01.687Z,94.21
2018-06-10T01:11:01.666Z,94.31
2018-06-10T01:12:01.680Z,94.21
2018-06-10T01:13:01.656Z,94.26
2018-06-10T01:14:01.675Z,94.35
2018-06-10T01:15:01.666Z,94.01
2018-06-10T01:16:01.674Z,94.21
2018-06-10T01:17:01.645Z,94.31
2018-06-10T01:18:01.642Z,94.4
2018-06-10T01:19:01.654Z,94.11
2018-06-10T01:20:01.655Z,94.11
2018-06-10T01:21:01.651Z,94.11
2018-06-10T01:22:01.630Z,94.11
2018-06-10T01:23:01.640Z,94.31
2018-06-10T01:24:01.644Z,94.11
2018-06-10T01:25:01.662Z,94.01
2018-06-10T01:26:01.380Z,93.82
2018-06-10T01:27:01.615Z,94.21
2018-06-10T01:28:01.635Z,94.11
2018-06-10T01:29:01.618Z,94.11
2018-06-10T01:30:01.627Z,93.63
2018-06-10T01:31:01.377Z,93.44
2018-06-10T01:32:01.624Z,93.54
2018-06-10T01:33:01.597Z,93.73
2018-06-10T01:34:01.340Z,93.73
2018-06-10T01:35:01.616Z,93.92
2018-06-10T01:36:01.607Z,93.54
2018-06-10T01:37:01.583Z,92.96
2018-06-10T01:38:01.354Z,92.96
2018-06-10T01:39:01.583Z,93.15
2018-06-10T01:40:01.612Z,93.29
2018-06-10T01:41:01.574Z,92.81
2018-06-10T01:42:01.588Z,92.77
2018-06-10T01:43:01.567Z,92.72
2018-06-10T01:44:01.581Z,92.86
2018-06-10T01:45:01.561Z,92.57
2018-06-10T01:46:01.575Z,92.57
2018-06-10T01:47:01.313Z,92.67
2018-06-10T01:48:01.569Z,92.52
2018-06-10T01:49:01.294Z,92.52
2018-06-10T01:50:01.565Z,92.57
2018-06-10T01:51:01.546Z,92.19
2018-06-10T01:52:01.537Z,92.67
2018-06-10T01:53:01.533Z,92.57
2018-06-10T01:54:01.550Z,92.48
2018-06-10T01:55:01.536Z,92.48
2018-06-10T01:56:01.550Z,92.48
2018-06-10T01:57:01.523Z,92.62
2018-06-10T01:58:01.543Z,92.86
2018-06-10T01:59:01.519Z,92.1
2018-06-10T02:00:01.532Z,92.57
2018-06-10T02:01:01.511Z,92.38
2018-06-10T02:02:01.534Z,92.48
2018-06-10T02:03:01.516Z,92.57
2018-06-10T02:04:01.518Z,92.57
2018-06-10T02:05:01.501Z,92.72
2018-06-10T02:06:01.496Z,92.57
2018-06-10T02:07:01.506Z,92.38
2018-06-10T02:08:01.507Z,92.48
2018-06-10T02:09:01.503Z,92.48
2018-06-10T02:10:01.481Z,92.86
2018-06-10T02:11:01.491Z,92.48
2018-06-10T02:12:01.474Z,92.48
2018-06-10T02:13:01.490Z,92.38
2018-06-10T02:14:01.467Z,92.38
2018-06-10T02:15:01.478Z,92.48
2018-06-10T02:16:01.482Z,92.48
2018-06-10T02:17:01.457Z,92.48
2018-06-10T02:18:01.474Z,92.38
2018-06-10T02:19:01.209Z,92.48
2018-06-10T02:20:01.473Z,92.57
2018-06-10T02:21:01.193Z,92.67
2018-06-10T02:22:01.858Z,92.67
2018-06-10T02:23:01.459Z,92.67
2018-06-10T02:24:01.456Z,92.62
2018-06-10T02:25:01.451Z,92.67
2018-06-10T02:26:01.432Z,92.57
2018-06-10T02:27:01.439Z,92.57
2018-06-10T02:28:01.424Z,92.43
2018-06-10T02:29:01.446Z,92.57
2018-06-10T02:30:01.418Z,92.57
2018-06-10T02:31:01.437Z,92.52
2018-06-10T02:32:01.412Z,92.57
2018-06-10T02:33:01.431Z,92.72
2018-06-10T02:34:01.416Z,92.67
2018-06-10T02:35:01.417Z,92.67
2018-06-10T02:36:01.400Z,92.81
2018-06-10T02:37:01.416Z,92.91
2018-06-10T02:38:01.415Z,92.91
2018-06-10T02:39:01.395Z,92.43
2018-06-10T02:40:01.395Z,92.81
2018-06-10T02:41:01.406Z,92.43
2018-06-10T02:42:01.397Z,92.33
2018-06-10T02:43:01.396Z,92.14
2018-06-10T02:44:01.375Z,92.72
2018-06-10T02:45:01.395Z,92.62
2018-06-10T02:46:01.369Z,92.52
2018-06-10T02:47:01.384Z,92.81
2018-06-10T02:48:01.364Z,92.81
2018-06-10T02:49:01.391Z,92.81
2018-06-10T02:50:01.357Z,92.14
2018-06-10T02:51:01.111Z,92.24
2018-06-10T02:52:01.354Z,92.24
2018-06-10T02:53:01.384Z,92.09
2018-06-10T02:54:01.370Z,92.43
2018-06-10T02:55:01.345Z,92.38
2018-06-10T02:56:01.088Z,92.96
2018-06-10T02:57:01.083Z,93.05
2018-06-10T02:58:01.351Z,92.67
2018-06-10T02:59:01.084Z,92.57
2018-06-10T03:00:01.346Z,92.09
2018-06-10T03:01:01.333Z,92.47
2018-06-10T03:02:01.084Z,92.47
2018-06-10T03:03:01.320Z,91.99
2018-06-10T03:04:01.339Z,92.47
2018-06-10T03:05:01.312Z,92.38
2018-06-10T03:06:01.329Z,92.67
2018-06-10T03:07:01.314Z,92.47
2018-06-10T03:08:01.460Z,92.29
2018-06-10T03:09:01.330Z,92.47
2018-06-10T03:10:01.319Z,92.67
2018-06-10T03:11:01.312Z,92.57
2018-06-10T03:12:01.298Z,92.57
2018-06-10T03:13:01.287Z,92.67
2018-06-10T03:14:01.317Z,92.57
2018-06-10T03:15:01.041Z,92.67
2018-06-10T03:16:01.046Z,92.47
2018-06-10T03:17:01.289Z,92.71
2018-06-10T03:18:01.301Z,92.81
2018-06-10T03:19:01.276Z,92.67
2018-06-10T03:20:01.280Z,92.86
2018-06-10T03:21:01.286Z,92.61
2018-06-10T03:22:01.262Z,92.71
2018-06-10T03:23:01.013Z,92.52
2018-06-10T03:24:01.268Z,92.61
2018-06-10T03:25:01.277Z,92.71
2018-06-10T03:26:01.272Z,92.52
2018-06-10T03:27:01.255Z,92.43
2018-06-10T03:28:01.247Z,92.61
2018-06-10T03:29:01.245Z,92.43
2018-06-10T03:30:01.264Z,92.81
2018-06-10T03:31:01.244Z,92.91
2018-06-10T03:32:01.240Z,92.81
2018-06-10T03:33:01.258Z,92.61
2018-06-10T03:34:01.237Z,92.61
2018-06-10T03:35:01.248Z,92.61
2018-06-10T03:36:01.231Z,92.81
2018-06-10T03:37:00.987Z,92.81
2018-06-10T03:38:01.223Z,92.81
2018-06-10T03:39:00.971Z,92.71
2018-06-10T03:40:01.216Z,92.18
2018-06-10T03:41:01.238Z,92.18
2018-06-10T03:42:01.231Z,92.33
2018-06-10T03:43:01.213Z,92.23
2018-06-10T03:44:01.207Z,92.08
2018-06-10T03:45:01.204Z,92.47
2018-06-10T03:46:01.220Z,92.28
2018-06-10T03:47:01.203Z,92.57
2018-06-10T03:48:01.218Z,92.38
2018-06-10T03:49:01.193Z,92.28
2018-06-10T03:50:01.219Z,92.28
2018-06-10T03:51:01.188Z,92.32
2018-06-10T03:52:01.206Z,92.13
2018-06-10T03:53:01.184Z,92.13
2018-06-10T03:54:01.204Z,92.03
2018-06-10T03:55:01.197Z,92.52
2018-06-10T03:56:00.940Z,91.84
2018-06-10T03:57:01.174Z,92.22
2018-06-10T03:58:01.191Z,92.08
2018-06-10T03:59:01.176Z,92.08
2018-06-10T04:00:01.167Z,92.37
2018-06-10T04:01:01.166Z,92.27
2018-06-10T04:02:01.187Z,92.37
2018-06-10T04:03:01.168Z,92.08
2018-06-10T04:04:01.179Z,92.41
2018-06-10T04:05:01.163Z,92.32
2018-06-10T04:06:01.179Z,91.83
2018-06-10T04:07:01.217Z,91.83
2018-06-10T04:08:01.178Z,91.93
2018-06-10T04:09:00.899Z,91.98
2018-06-10T04:10:01.170Z,91.4
2018-06-10T04:11:01.162Z,91.5
2018-06-10T04:12:00.909Z,91.35
2018-06-10T04:13:01.145Z,91.35
2018-06-10T04:14:01.144Z,91.16
2018-06-10T04:15:01.157Z,90.91
2018-06-10T04:16:01.158Z,90.58
2018-06-10T04:17:00.903Z,90.14
2018-06-10T04:18:01.138Z,90.33
2018-06-10T04:19:01.152Z,90.19
2018-06-10T04:20:01.136Z,90.19
2018-06-10T04:21:01.163Z,89.45
2018-06-10T04:22:00.884Z,88.78
2018-06-10T04:23:01.149Z,88.73
2018-06-10T04:24:01.161Z,87.95
2018-06-10T04:25:01.136Z,88.19
2018-06-10T04:26:01.154Z,87.99
2018-06-10T04:27:01.150Z,87.51
2018-06-10T04:28:01.157Z,87.81
2018-06-10T04:29:01.139Z,87.07
2018-06-10T04:30:01.137Z,87.07
2018-06-10T04:31:01.153Z,86.88
2018-06-10T04:32:01.158Z,86.92
2018-06-10T04:33:01.161Z,86.05
2018-06-10T04:34:01.143Z,86.24
2018-06-10T04:35:01.163Z,86.19
2018-06-10T04:36:01.145Z,85.03
2018-06-10T04:37:01.163Z,85.61
2018-06-10T04:38:01.145Z,85.13
2018-06-10T04:39:01.174Z,85.03
2018-06-10T04:40:01.147Z,84.83
2018-06-10T04:41:01.170Z,84.64
2018-06-10T04:42:01.150Z,84.68
2018-06-10T04:43:01.165Z,85.07
2018-06-10T04:44:01.153Z,84
2018-06-10T04:45:00.924Z,84.2
2018-06-10T04:46:01.180Z,84.14
2018-06-10T04:47:01.167Z,83.75
2018-06-10T04:48:01.161Z,83.17
2018-06-10T04:49:01.183Z,83.5
2018-06-10T04:50:01.167Z,82.73
2018-06-10T04:51:00.926Z,82.09
2018-06-10T04:52:01.170Z,81.8
2018-06-10T04:53:01.295Z,80.77
2018-06-10T04:54:01.182Z,80.81
2018-06-10T04:55:01.200Z,80.27
2018-06-10T04:56:00.932Z,79.04
2018-06-10T04:57:00.952Z,78.3
2018-06-10T04:58:01.191Z,77.17
2018-06-10T04:59:01.201Z,75.75
2018-06-10T05:00:01.253Z,74.82
2018-06-10T05:01:01.227Z,74.46
2018-06-10T05:02:01.213Z,73.23
2018-06-10T05:03:01.243Z,72.35
2018-06-10T05:04:01.248Z,72.45
2018-06-10T05:05:01.249Z,71.86
2018-06-10T05:06:01.235Z,71.37
2018-06-10T05:07:01.257Z,70.98
2018-06-10T05:08:00.997Z,70.98
2018-06-10T05:09:01.275Z,70.31
2018-06-10T05:10:01.261Z,70.6
2018-06-10T05:11:01.285Z,70.27
2018-06-10T05:12:01.274Z,70.56
2018-06-10T05:13:01.316Z,70.56
2018-06-10T05:14:01.289Z,70.47
2018-06-10T05:15:01.306Z,71.15
2018-06-10T05:16:01.063Z,71.05
2018-06-10T05:17:01.303Z,70.86
2018-06-10T05:18:01.312Z,70.62
2018-06-10T05:19:01.072Z,70.92
2018-06-10T05:20:01.549Z,71.31
2018-06-10T05:21:01.346Z,71.01
2018-06-10T05:22:01.331Z,71.6
2018-06-10T05:23:01.095Z,71.56
2018-06-10T05:24:01.341Z,71.56
2018-06-10T05:25:01.367Z,70.98
2018-06-10T05:26:01.355Z,71.08
2018-06-10T05:27:01.380Z,71.21
2018-06-10T05:28:01.380Z,71.11
2018-06-10T05:29:01.429Z,71.11
2018-06-10T05:30:01.123Z,70.62
2018-06-10T05:31:01.385Z,70.23
2018-06-10T05:32:01.384Z,70.43
2018-06-10T05:33:01.415Z,70.04
2018-06-10T05:34:01.420Z,70.33
2018-06-10T05:35:01.412Z,70.17
2018-06-10T05:36:01.167Z,69.68
2018-06-10T05:37:01.414Z,69.59
2018-06-10T05:38:01.440Z,69.68
2018-06-10T05:39:01.431Z,68.9
2018-06-10T05:40:01.206Z,68.16
2018-06-10T05:41:01.461Z,67.41
2018-06-10T05:42:01.443Z,65.78
2018-06-10T05:43:01.212Z,65.53
2018-06-10T05:44:01.459Z,64.19
2018-06-10T05:45:01.485Z,62.46
2018-06-10T05:46:01.470Z,61.35
2018-06-10T05:47:01.485Z,60.6
2018-06-10T05:48:01.487Z,58.76
2018-06-10T05:49:01.515Z,57.62
2018-06-10T05:50:01.524Z,56.17
2018-06-10T05:51:01.267Z,54.75
2018-06-10T05:52:01.522Z,53.41
2018-06-10T05:53:01.531Z,52.65
2018-06-10T05:54:01.549Z,51.4
2018-06-10T05:55:01.556Z,50.07
2018-06-10T05:56:01.582Z,48.61
2018-06-10T05:57:01.338Z,48.14
2018-06-10T05:58:01.594Z,47.09
2018-06-10T05:59:01.599Z,46.22
2018-06-10T06:00:01.610Z,46.03
2018-06-10T06:01:01.641Z,45.56
2018-06-10T06:02:14.368Z,45.06
2018-06-10T06:03:01.664Z,44.69
2018-06-10T06:04:01.653Z,44.32
2018-06-10T06:05:01.687Z,44.14
2018-06-10T06:06:01.681Z,42.78
2018-06-10T06:07:01.454Z,42.01
2018-06-10T06:08:01.709Z,41.22
2018-06-10T06:09:01.730Z,41.41
2018-06-10T06:10:01.479Z,41.31
2018-06-10T06:11:14.497Z,41
2018-06-10T06:12:01.757Z,41.39
2018-06-10T06:13:01.531Z,40.88
2018-06-10T06:14:01.782Z,41.75
2018-06-10T06:15:14.547Z,41.85
2018-06-10T06:16:01.807Z,42.22
2018-06-10T06:17:03.093Z,42.6
2018-06-10T06:18:01.848Z,43.07
2018-06-10T06:19:01.604Z,43.37
2018-06-10T06:20:01.877Z,43.54
2018-06-10T06:21:01.864Z,44.01
2018-06-10T06:22:01.897Z,44.51
2018-06-10T06:23:01.886Z,45.09
2018-06-10T06:24:01.917Z,45.37
2018-06-10T06:25:01.913Z,45.37
2018-06-10T06:26:01.938Z,45.37
2018-06-10T06:27:01.930Z,45.67
2018-06-10T06:28:01.968Z,45.56
2018-06-10T06:29:01.953Z,45.29
2018-06-10T06:30:01.973Z,45.39
2018-06-10T06:31:01.979Z,45.19
2018-06-10T06:32:02.004Z,45
2018-06-10T06:33:01.996Z,45.29
2018-06-10T06:34:02.024Z,45.59
2018-06-10T06:35:02.038Z,45.39
2018-06-10T06:36:02.050Z,45.49
2018-06-10T06:37:02.041Z,45.09
2018-06-10T06:38:02.067Z,45.09
2018-06-10T06:39:02.068Z,44.78
2018-06-10T06:40:01.839Z,44.68
2018-06-10T06:41:02.086Z,44.78
2018-06-10T06:42:02.117Z,44.68
2018-06-10T06:43:02.114Z,44.78
2018-06-10T06:44:02.142Z,44.6
2018-06-10T06:45:02.134Z,43.84
2018-06-10T06:46:02.159Z,43.17
2018-06-10T06:47:01.958Z,42.4
2018-06-10T06:48:01.933Z,41.85
2018-06-10T06:49:02.202Z,41.08
2018-06-10T06:50:02.200Z,41.02
2018-06-10T06:51:01.957Z,39.75
2018-06-10T06:52:02.223Z,39.08
2018-06-10T06:53:02.261Z,38.7
2018-06-10T06:54:02.257Z,37.93
2018-06-10T06:55:02.288Z,38.13
2018-06-10T06:56:02.280Z,37.62
2018-06-10T06:57:02.313Z,37.81
2018-06-10T06:58:02.414Z,38.01
2018-06-10T06:59:02.069Z,38.39
2018-06-10T07:00:02.353Z,38.37
2018-06-10T07:01:02.348Z,38.37
2018-06-10T07:02:02.371Z,38.55
2018-06-10T07:03:02.136Z,38.82
2018-06-10T07:04:02.421Z,39.42
2018-06-10T07:05:02.421Z,39.2
2018-06-10T07:06:02.417Z,39.99
2018-06-10T07:07:02.431Z,40.29
2018-06-10T07:08:02.439Z,40.07
2018-06-10T07:09:02.470Z,40.37
2018-06-10T07:10:02.220Z,40.64
2018-06-10T07:11:02.492Z,41.33
2018-06-10T07:12:02.633Z,41.12
2018-06-10T07:13:02.521Z,41.51
2018-06-10T07:14:02.508Z,41.22
2018-06-10T07:15:02.542Z,41.3
2018-06-10T07:16:02.531Z,41.77
2018-06-10T07:17:02.605Z,41.77
2018-06-10T07:18:02.570Z,41.67
2018-06-10T07:19:02.588Z,42.14
2018-06-10T07:20:02.354Z,42.14
2018-06-10T07:21:02.586Z,42.54
2018-06-10T07:22:02.611Z,42.44
2018-06-10T07:23:02.627Z,42.52
2018-06-10T07:24:02.618Z,43.2
2018-06-10T07:25:02.649Z,42.81
2018-06-10T07:26:02.652Z,42.81
2018-06-10T07:27:02.673Z,43.18
2018-06-10T07:28:02.667Z,43.28
2018-06-10T07:29:02.447Z,43.57
2018-06-10T07:30:02.688Z,43.18
2018-06-10T07:31:02.722Z,42.61
2018-06-10T07:32:02.703Z,42.73
2018-06-10T07:33:02.735Z,41.86
2018-06-10T07:34:02.742Z,41.99
2018-06-10T07:35:02.761Z,41.49
2018-06-10T07:36:02.752Z,40.94
2018-06-10T07:37:02.798Z,39.68
2018-06-10T07:38:15.521Z,39.22
2018-06-10T07:39:02.806Z,38.07
2018-06-10T07:40:02.824Z,37.79
2018-06-10T07:41:02.564Z,37.13
2018-06-10T07:42:02.843Z,36.16
2018-06-10T07:43:02.849Z,35.58
2018-06-10T07:44:02.875Z,34.91
2018-06-10T07:45:02.872Z,34.03
2018-06-10T07:46:02.905Z,33.27
2018-06-10T07:47:02.903Z,33.69
2018-06-10T07:48:02.936Z,32.71
2018-06-10T07:49:02.937Z,32.32
2018-06-10T07:50:02.963Z,31.33
2018-06-10T07:51:02.993Z,30.75
2018-06-10T07:52:02.986Z,30.56
2018-06-10T07:53:02.750Z,30.27
2018-06-10T07:54:03.031Z,30.68
2018-06-10T07:55:02.797Z,30.38
2018-06-10T07:56:03.073Z,30.38
2018-06-10T07:57:02.817Z,29.3
2018-06-10T07:58:03.109Z,29
2018-06-10T07:59:03.106Z,28.5
2018-06-10T08:00:03.195Z,28.3
2018-06-10T08:01:02.891Z,28.99
2018-06-10T08:02:02.925Z,29.97
2018-06-10T08:03:03.184Z,29.77
2018-06-10T08:04:03.238Z,29.95
2018-06-10T08:05:03.214Z,29.55
2018-06-10T08:06:03.240Z,29.16
2018-06-10T08:07:03.001Z,28.96
2018-06-10T08:08:03.290Z,29.25
2018-06-10T08:09:03.310Z,29.25
2018-06-10T08:10:03.069Z,29.46
2018-06-10T08:11:03.332Z,29.05
2018-06-10T08:12:03.509Z,29.05
2018-06-10T08:13:03.125Z,29.54
2018-06-10T08:14:03.135Z,29.65
2018-06-10T08:15:03.408Z,29.74
2018-06-10T08:16:03.188Z,29.75
2018-06-10T08:17:03.440Z,29.35
2018-06-10T08:18:03.475Z,29.35
2018-06-10T08:19:03.481Z,29.25
2018-06-10T08:20:03.515Z,28.94
2018-06-10T08:21:03.261Z,29.34
2018-06-10T08:22:03.284Z,29.24
2018-06-10T08:23:03.548Z,29.72
2018-06-10T08:24:03.596Z,29.93
2018-06-10T08:25:03.610Z,29.8
2018-06-10T08:26:03.612Z,29.69
2018-06-10T08:27:03.636Z,30.09
2018-06-10T08:28:03.658Z,30.39
2018-06-10T08:29:03.658Z,30.99
2018-06-10T08:30:03.696Z,31.09
2018-06-10T08:31:03.694Z,30.99
2018-06-10T08:32:03.925Z,30.49
2018-06-10T08:33:03.729Z,30.59
2018-06-10T08:34:03.766Z,29.8
2018-06-10T08:35:03.518Z,29.6
2018-06-10T08:36:03.808Z,29.9
2018-06-10T08:37:03.546Z,29.6
2018-06-10T08:38:03.825Z,29.8
2018-06-10T08:39:03.841Z,29.98
2018-06-10T08:40:03.613Z,29.86
2018-06-10T08:41:03.615Z,30.66
2018-06-10T08:42:03.643Z,30.55
2018-06-10T08:43:03.925Z,31.04
2018-06-10T08:44:03.734Z,30.53
2018-06-10T08:45:03.935Z,31.51
2018-06-10T08:46:03.971Z,31.71
2018-06-10T08:47:03.971Z,32.1
2018-06-10T08:48:03.750Z,32
2018-06-10T08:49:04.006Z,32.68
2018-06-10T08:50:03.784Z,32.6
2018-06-10T08:51:04.042Z,32.6
2018-06-10T08:52:03.816Z,32.89
2018-06-10T08:53:03.818Z,33.28
2018-06-10T08:54:03.840Z,33.28
2018-06-10T08:55:03.851Z,33.37
2018-06-10T08:56:03.883Z,33.45
2018-06-10T08:57:04.296Z,33.45
2018-06-10T08:58:03.908Z,33.65
2018-06-10T08:59:03.917Z,33.73
2018-06-10T09:00:03.930Z,33.94
2018-06-10T09:01:03.960Z,34.01
2018-06-10T09:02:03.971Z,34.01
2018-06-10T09:03:03.992Z,34.61
2018-06-10T09:04:04.016Z,34.59
2018-06-10T09:05:04.019Z,34.88
2018-06-10T09:06:04.279Z,35.27
2018-06-10T09:07:04.033Z,35.55
2018-06-10T09:08:04.060Z,36.32
2018-06-10T09:09:04.061Z,36.32
2018-06-10T09:10:04.340Z,37.09
2018-06-10T09:11:04.083Z,36.8
2018-06-10T09:12:04.111Z,37.47
2018-06-10T09:13:04.387Z,37.35
2018-06-10T09:14:04.125Z,37.74
2018-06-10T09:15:04.136Z,36.86
2018-06-10T09:16:04.144Z,37.34
2018-06-10T09:17:04.172Z,38.12
2018-06-10T09:18:04.431Z,37.53
2018-06-10T09:19:04.451Z,36.65
2018-06-10T09:20:04.190Z,36.82
2018-06-10T09:21:04.216Z,36.43
2018-06-10T09:22:04.213Z,37.3
2018-06-10T09:23:04.238Z,36.79
2018-06-10T09:24:04.234Z,37.57
2018-06-10T09:25:04.264Z,37.67
2018-06-10T09:26:04.527Z,37.85
2018-06-10T09:27:04.280Z,37.76
2018-06-10T09:28:04.534Z,37.74
2018-06-10T09:29:04.541Z,37.74
2018-06-10T09:30:04.306Z,38.11
2018-06-10T09:31:04.578Z,38.21
2018-06-10T09:32:04.566Z,38.4
2018-06-10T09:33:04.342Z,39.37
2018-06-10T09:34:04.608Z,39.47
2018-06-10T09:35:04.365Z,39.47
2018-06-10T09:36:04.355Z,39.47
2018-06-10T09:37:04.379Z,39.27
2018-06-10T09:38:04.630Z,39.47
2018-06-10T09:39:04.658Z,38.29
2018-06-10T09:40:04.392Z,38.68
2018-06-10T09:41:04.417Z,38.68
2018-06-10T09:42:04.760Z,38.58
2018-06-10T09:43:04.696Z,39.37
2018-06-10T09:44:04.686Z,39.47
2018-06-10T09:45:04.691Z,39.95
2018-06-10T09:46:04.724Z,40.06
2018-06-10T09:47:04.731Z,39.37
2018-06-10T09:48:04.490Z,38.98
2018-06-10T09:49:04.727Z,38.68
2018-06-10T09:50:04.499Z,37.88
2018-06-10T09:51:04.749Z,37.98
2018-06-10T09:52:04.774Z,39.06
2018-06-10T09:53:04.513Z,40.03
2018-06-10T09:54:04.536Z,39.64
2018-06-10T09:55:04.849Z,40.03
2018-06-10T09:56:04.555Z,39.94
2018-06-10T09:57:04.807Z,40.13
2018-06-10T09:58:04.825Z,40.23
2018-06-10T09:59:04.839Z,41.02
2018-06-10T10:00:04.845Z,40.53
2018-06-10T10:01:04.584Z,41.31
2018-06-10T10:02:04.606Z,40.92
2018-06-10T10:03:04.883Z,40.82
2018-06-10T10:04:04.626Z,40.63
2018-06-10T10:05:04.886Z,41.31
2018-06-10T10:06:04.638Z,41.61
2018-06-10T10:07:04.638Z,41.41
2018-06-10T10:08:04.919Z,40.72
2018-06-10T10:09:04.925Z,40.43
2018-06-10T10:10:04.931Z,39.45
2018-06-10T10:11:04.951Z,39.95
2018-06-10T10:12:04.939Z,40.64
2018-06-10T10:13:04.704Z,40.43
2018-06-10T10:14:04.709Z,40.45
2018-06-10T10:15:04.981Z,40.53
2018-06-10T10:16:04.971Z,40.55
2018-06-10T10:17:04.979Z,40.23
2018-06-10T10:18:05.001Z,41.03
2018-06-10T10:19:05.023Z,40.55
2018-06-10T10:20:05.022Z,40.94
2018-06-10T10:21:05.029Z,41.06
2018-06-10T10:22:05.039Z,40.47
2018-06-10T10:23:04.794Z,39.39
2018-06-10T10:24:05.048Z,39.88
2018-06-10T10:25:05.074Z,40.47
2018-06-10T10:26:05.061Z,39.98
2018-06-10T10:27:05.092Z,40.58
2018-06-10T10:28:05.079Z,40.09
2018-06-10T10:29:05.104Z,39.6
2018-06-10T10:30:04.853Z,39.13
2018-06-10T10:31:04.865Z,38.64
2018-06-10T10:32:05.114Z,38.56
2018-06-10T10:33:05.128Z,38.26
2018-06-10T10:34:05.146Z,38.07
2018-06-10T10:35:05.159Z,38.46
2018-06-10T10:36:05.168Z,37.77
2018-06-10T10:37:04.922Z,37.77
2018-06-10T10:38:04.923Z,37.38
2018-06-10T10:39:05.183Z,37.08
2018-06-10T10:40:05.209Z,37.28
2018-06-10T10:41:05.199Z,36.4
2018-06-10T10:42:05.225Z,36.59
2018-06-10T10:43:05.434Z,36.2
2018-06-10T10:44:05.244Z,35.71
2018-06-10T10:45:05.236Z,35.9
2018-06-10T10:46:05.261Z,36.3
2018-06-10T10:47:05.258Z,37.18
2018-06-10T10:48:05.290Z,36.87
2018-06-10T10:49:05.274Z,37.46
2018-06-10T10:50:05.296Z,36.88
2018-06-10T10:51:05.311Z,37.36
2018-06-10T10:52:05.333Z,37.55
2018-06-10T10:53:05.056Z,37.46
2018-06-10T10:54:05.329Z,37.76
2018-06-10T10:55:05.327Z,37.85
2018-06-10T10:56:05.109Z,37.95
2018-06-10T10:57:05.347Z,37.87
2018-06-10T10:58:05.387Z,37.97
2018-06-10T10:59:05.363Z,37.48
2018-06-10T11:00:05.407Z,37.08
2018-06-10T11:01:05.382Z,37.77
2018-06-10T11:02:05.396Z,37.87
2018-06-10T11:03:05.399Z,37.95
2018-06-10T11:04:05.426Z,37.76
2018-06-10T11:05:05.184Z,37.55
2018-06-10T11:06:05.434Z,37.76
2018-06-10T11:07:05.443Z,37.54
2018-06-10T11:08:05.498Z,37.74
2018-06-10T11:09:05.219Z,38.23
2018-06-10T11:10:05.475Z,37.93
2018-06-10T11:11:05.492Z,38.23
2018-06-10T11:12:05.227Z,37.82
2018-06-10T11:13:05.525Z,37.72
2018-06-10T11:14:05.705Z,37.92
2018-06-10T11:15:05.254Z,38.19
2018-06-10T11:16:05.538Z,38.29
2018-06-10T11:17:05.544Z,38.39
2018-06-10T11:18:05.537Z,39.06
2018-06-10T11:19:05.289Z,38.98
2018-06-10T11:20:05.571Z,39.17
2018-06-10T11:21:05.575Z,39.25
2018-06-10T11:22:05.576Z,39.06
2018-06-10T11:23:05.574Z,39.25
2018-06-10T11:24:05.603Z,39.03
2018-06-10T11:25:05.621Z,38.35
2018-06-10T11:26:05.666Z,39.03
2018-06-10T11:27:05.794Z,39.8
2018-06-10T11:28:05.613Z,40.39
2018-06-10T11:29:05.652Z,40.95
2018-06-10T11:30:05.652Z,40.95
2018-06-10T11:31:05.660Z,40.94
2018-06-10T11:32:05.652Z,40.84
2018-06-10T11:33:05.682Z,40.74
2018-06-10T11:34:05.673Z,41.03
2018-06-10T11:35:05.688Z,41.33
2018-06-10T11:36:05.951Z,41.41
2018-06-10T11:37:05.686Z,41.5
2018-06-10T11:38:05.448Z,42.48
2018-06-10T11:39:05.734Z,42.48
2018-06-10T11:40:05.721Z,43.27
2018-06-10T11:41:05.736Z,42.68
2018-06-10T11:42:05.726Z,43.24
2018-06-10T11:43:05.748Z,43.34
2018-06-10T11:44:05.745Z,43.24
2018-06-10T11:45:05.764Z,43.44
2018-06-10T11:46:05.752Z,43.73
2018-06-10T11:47:05.780Z,44.23
2018-06-10T11:48:05.765Z,44.52
2018-06-10T11:49:05.789Z,44.71
2018-06-10T11:50:05.796Z,45.1
2018-06-10T11:51:05.801Z,45.2
2018-06-10T11:52:06.223Z,45.5
2018-06-10T11:53:05.818Z,45.69
2018-06-10T11:54:05.570Z,45.69
2018-06-10T11:55:05.829Z,46.08
2018-06-10T11:56:05.817Z,46.45
2018-06-10T11:57:05.853Z,47.04
2018-06-10T11:58:05.606Z,47.33
2018-06-10T11:59:05.875Z,47.72
2018-06-10T12:00:05.843Z,48.5
2018-06-10T12:01:05.894Z,48.28
2018-06-10T12:02:05.873Z,47.21
2018-06-10T12:03:05.887Z,47.99
2018-06-10T12:04:05.871Z,48.28
2018-06-10T12:05:05.898Z,48.38
2018-06-10T12:06:05.891Z,48.36
2018-06-10T12:07:05.889Z,48.38
2018-06-10T12:08:05.915Z,47.89
2018-06-10T12:09:05.928Z,48.09
2018-06-10T12:10:05.927Z,47.48
2018-06-10T12:11:05.922Z,47.11
2018-06-10T12:12:05.925Z,47.02
2018-06-10T12:13:05.976Z,46.53
2018-06-10T12:14:05.939Z,48.48
2018-06-10T12:15:05.964Z,51.22
2018-06-10T12:16:05.948Z,53.34
2018-06-10T12:17:05.975Z,54.71
2018-06-10T12:18:05.978Z,56.35
2018-06-10T12:19:06.335Z,57.23
2018-06-10T12:20:05.970Z,60.25
2018-06-10T12:21:05.741Z,62.56
2018-06-10T12:22:06.001Z,62.47
2018-06-10T12:23:06.007Z,64.68
2018-06-10T12:24:05.994Z,65.26
2018-06-10T12:25:05.751Z,65.75
2018-06-10T12:26:05.777Z,67.47
2018-06-10T12:27:05.779Z,68.84
2018-06-10T12:28:06.037Z,70.01
2018-06-10T12:29:06.033Z,70.98
2018-06-10T12:30:05.788Z,71.28
2018-06-10T12:31:06.059Z,71.37
2018-06-10T12:32:05.788Z,71.37
2018-06-10T12:33:05.809Z,71.18
2018-06-10T12:34:06.058Z,71.86
2018-06-10T12:35:05.835Z,70.4
2018-06-10T12:36:06.061Z,67.86
2018-06-10T12:37:05.838Z,67.47
2018-06-10T12:38:06.308Z,67.86
2018-06-10T12:39:06.096Z,70.27
2018-06-10T12:40:06.096Z,72.41
2018-06-10T12:41:05.841Z,73.97
2018-06-10T12:42:06.116Z,74.43
2018-06-10T12:43:06.120Z,74.78
2018-06-10T12:44:06.144Z,74.97
2018-06-10T12:45:06.107Z,74.78
2018-06-10T12:46:06.136Z,76.04
2018-06-10T12:47:05.864Z,75.81
2018-06-10T12:48:06.146Z,75.97
2018-06-10T12:49:06.207Z,75.68
2018-06-10T12:50:05.910Z,75.68
2018-06-10T12:51:06.139Z,75.09
2018-06-10T12:52:06.162Z,74.38
2018-06-10T12:53:06.150Z,74.48
2018-06-10T12:54:06.151Z,75.7
2018-06-10T12:55:06.160Z,75.7